Terminal Aerodrome Forecast
Issued by NWS

Home | Current Version | Previous Version | Graphics & Text | Print | Product List | Glossary On
Versions: 1 2 3 4 5 6 7 8 9 10 11 12 13 14 15 16 17 18 19 20 21 22 23 24 25
000
FTUS43 KBIS 260200 AAA
TAFMOT
TAF AMD
KMOT 260257Z 2603/2624 31012KT P6SM BKN015 OVC025
     FM260600 32012KT P6SM SCT015 BKN035
      TEMPO 2610/2614 BKN015
     FM261600 32006KT P6SM SCT035 BKN150=

USA.gov is the U.S. government's official web portal to all federal, state and local government web resources and services.